Aérodrome :
LOGIN :

S'inscrire | Disclaimer

   EN    FR    IT 

 










Légende :    VFR   VFR Marginal   IFR   IFR Intensif   IFR Très Intensif
Visi : 
Plafond : 
>= 8 km
>= 3000ft
5 à 8 km
1000 à 3000 ft
1500m à 5 km
500 à 1000 ft
800 à 1500m
200 à 500 ft
< 800m
< 200 ft
Symboles :   Orages  Brouillard  Fortes neiges  Fortes précipitations  Vent > 20 kt
SIGMETs :   Divers  Orages  Givrage  Turbulence  Onde Orograph.  Cendres Volcan.






- Altitude de l'aérodrome : 33 ft
- Code IATA : MHZ


EGUN - RAF Mildenhall

DERNIER METAR :
  • 301656Z 19008KT 9999 SCT040 BKN200 17/09 A2986 RMK AO2A SLP115 T01740090 $

METARs EXPIRÉS :
  • 301556Z 19008KT 9999 SCT040 BKN100 BKN200 18/10 A2986 RMK AO2A SLP115 T01810100 $
  • 301456Z 20006KT 9999 SCT040 BKN100 BKN170 19/10 A2986 RMK AO2A SLP115 T01860099 53001 $

TAF TAF EGUN
Valide du 30 à 12h jusqu'au 01 à 18h UTC


301200Z 3012/0118 20009KT 9999 FEW025 BKN110 QNH2986INS
TEMPO 3012/3018 -SHRA BKN030
BECMG 3018/3019 20006KT 9999 SCT030 BKN060 QNH2987INS
BECMG 0100/0102 22009KT 9000 -SHRA BR SCT015 BKN030 BKN100 QNH2991INS
BECMG 0106/0108 24009KT 9999 NSW SCT015 BKN040 BKN065 QNH2994INS
BECMG 0109/0110 24012KT 9999 FEW025 SCT050 QNH2996INS
BECMG 0111/0112 24010G15KT 9999 -SHRA VCTS BKN030 BKN100 QNH2997INS TX20/0112Z TN11/0103Z



MET'MAP, la Météo Aéronautique d'un coup d'oeil ! - Copyright ORBIFLY Décembre 2007 - Disclaimer

ORBIFLY MET'MAP TEAM :

Programmation & Développement : Alexandra Zaïnal
Sur une idée originale de : Baudouin d'Aumeries
Soutien technique & logistique : Manuel Goepfert
Assistance : Marc-Olivier Méhu




SOURCES & CREDITS :

   NOAA